sensor_id;sensor_type;location;lat;lon;timestamp;P1;durP1;ratioP1;P2;durP2;ratioP2
37593;SDS011;23441;50.856;6.076;2023-06-01T00:02:14;9.88;;;3.92;;
37593;SDS011;23441;50.856;6.076;2023-06-01T00:04:40;8.77;;;4.18;;
37593;SDS011;23441;50.856;6.076;2023-06-01T00:07:06;7.82;;;4.53;;
37593;SDS011;23441;50.856;6.076;2023-06-01T00:09:35;9.50;;;4.60;;
37593;SDS011;23441;50.856;6.076;2023-06-01T00:12:01;12.90;;;5.00;;
37593;SDS011;23441;50.856;6.076;2023-06-01T00:14:28;6.93;;;4.68;;
37593;SDS011;23441;50.856;6.076;2023-06-01T00:16:54;8.65;;;4.80;;
37593;SDS011;23441;50.856;6.076;2023-06-01T00:19:21;7.80;;;4.70;;
37593;SDS011;23441;50.856;6.076;2023-06-01T00:21:47;10.45;;;4.95;;
37593;SDS011;23441;50.856;6.076;2023-06-01T00:24:13;8.55;;;4.70;;
37593;SDS011;23441;50.856;6.076;2023-06-01T00:26:38;12.25;;;5.00;;
37593;SDS011;23441;50.856;6.076;2023-06-01T00:29:04;7.70;;;4.63;;
37593;SDS011;23441;50.856;6.076;2023-06-01T00:31:30;10.75;;;4.70;;
37593;SDS011;23441;50.856;6.076;2023-06-01T00:33:55;11.57;;;5.50;;
37593;SDS011;23441;50.856;6.076;2023-06-01T00:36:21;8.73;;;5.35;;
37593;SDS011;23441;50.856;6.076;2023-06-01T00:38:47;11.48;;;5.00;;
37593;SDS011;23441;50.856;6.076;2023-06-01T00:41:12;11.40;;;5.80;;
37593;SDS011;23441;50.856;6.076;2023-06-01T00:43:38;12.77;;;6.30;;
37593;SDS011;23441;50.856;6.076;2023-06-01T00:46:04;11.32;;;5.72;;
37593;SDS011;23441;50.856;6.076;2023-06-01T00:48:30;10.57;;;6.10;;
37593;SDS011;23441;50.856;6.076;2023-06-01T00:50:56;14.40;;;6.22;;
37593;SDS011;23441;50.856;6.076;2023-06-01T00:53:24;16.48;;;6.38;;
37593;SDS011;23441;50.856;6.076;2023-06-01T00:55:50;13.60;;;5.95;;
37593;SDS011;23441;50.856;6.076;2023-06-01T00:58:16;10.57;;;5.75;;
37593;SDS011;23441;50.856;6.076;2023-06-01T01:00:42;14.73;;;6.82;;
37593;SDS011;23441;50.856;6.076;2023-06-01T01:03:08;11.75;;;6.70;;
37593;SDS011;23441;50.856;6.076;2023-06-01T01:05:38;13.27;;;7.20;;
37593;SDS011;23441;50.856;6.076;2023-06-01T01:11:29;13.90;;;6.40;;
37593;SDS011;23441;50.856;6.076;2023-06-01T01:13:55;11.32;;;5.97;;
37593;SDS011;23441;50.856;6.076;2023-06-01T01:16:31;10.82;;;6.03;;
37593;SDS011;23441;50.856;6.076;2023-06-01T01:19:35;12.95;;;6.63;;
37593;SDS011;23441;50.856;6.076;2023-06-01T01:22:22;13.98;;;7.10;;
37593;SDS011;23441;50.856;6.076;2023-06-01T01:30:57;17.52;;;7.15;;
37593;SDS011;23441;50.856;6.076;2023-06-01T01:33:25;15.95;;;7.93;;
37593;SDS011;23441;50.856;6.076;2023-06-01T01:35:52;13.45;;;7.47;;
37593;SDS011;23441;50.856;6.076;2023-06-01T01:38:18;13.18;;;7.45;;
37593;SDS011;23441;50.856;6.076;2023-06-01T01:40:44;16.20;;;7.43;;
37593;SDS011;23441;50.856;6.076;2023-06-01T01:43:10;12.35;;;7.65;;
37593;SDS011;23441;50.856;6.076;2023-06-01T01:45:36;26.52;;;8.15;;
37593;SDS011;23441;50.856;6.076;2023-06-01T01:48:07;17.50;;;7.72;;
37593;SDS011;23441;50.856;6.076;2023-06-01T01:50:41;16.42;;;7.57;;
37593;SDS011;23441;50.856;6.076;2023-06-01T01:53:20;15.30;;;7.88;;
37593;SDS011;23441;50.856;6.076;2023-06-01T01:55:49;12.63;;;7.57;;
37593;SDS011;23441;50.856;6.076;2023-06-01T01:58:17;19.90;;;7.68;;
37593;SDS011;23441;50.856;6.076;2023-06-01T02:00:43;12.38;;;7.88;;
37593;SDS011;23441;50.856;6.076;2023-06-01T02:03:14;11.43;;;8.18;;
37593;SDS011;23441;50.856;6.076;2023-06-01T02:05:41;17.67;;;8.52;;
37593;SDS011;23441;50.856;6.076;2023-06-01T02:08:07;15.73;;;8.98;;
37593;SDS011;23441;50.856;6.076;2023-06-01T02:10:33;15.85;;;8.13;;
37593;SDS011;23441;50.856;6.076;2023-06-01T02:12:59;18.65;;;8.35;;
37593;SDS011;23441;50.856;6.076;2023-06-01T02:15:25;18.88;;;9.40;;
37593;SDS011;23441;50.856;6.076;2023-06-01T02:17:51;13.80;;;7.95;;
37593;SDS011;23441;50.856;6.076;2023-06-01T02:20:18;15.32;;;8.77;;
37593;SDS011;23441;50.856;6.076;2023-06-01T02:22:44;14.50;;;7.68;;
37593;SDS011;23441;50.856;6.076;2023-06-01T02:25:10;15.98;;;8.80;;
37593;SDS011;23441;50.856;6.076;2023-06-01T02:27:36;16.95;;;9.18;;
37593;SDS011;23441;50.856;6.076;2023-06-01T02:30:02;18.13;;;9.45;;
37593;SDS011;23441;50.856;6.076;2023-06-01T02:32:28;19.52;;;9.75;;
37593;SDS011;23441;50.856;6.076;2023-06-01T02:34:55;15.00;;;9.45;;
37593;SDS011;23441;50.856;6.076;2023-06-01T02:37:21;21.13;;;10.25;;
37593;SDS011;23441;50.856;6.076;2023-06-01T02:39:47;16.70;;;10.07;;
37593;SDS011;23441;50.856;6.076;2023-06-01T02:42:12;23.92;;;10.35;;
37593;SDS011;23441;50.856;6.076;2023-06-01T02:44:38;17.13;;;9.98;;
37593;SDS011;23441;50.856;6.076;2023-06-01T02:47:04;22.20;;;9.82;;
37593;SDS011;23441;50.856;6.076;2023-06-01T02:49:30;19.48;;;9.55;;
37593;SDS011;23441;50.856;6.076;2023-06-01T02:51:56;15.95;;;9.48;;
37593;SDS011;23441;50.856;6.076;2023-06-01T02:54:22;18.70;;;10.18;;
37593;SDS011;23441;50.856;6.076;2023-06-01T02:56:48;18.95;;;9.68;;
37593;SDS011;23441;50.856;6.076;2023-06-01T02:59:14;15.30;;;10.18;;
37593;SDS011;23441;50.856;6.076;2023-06-01T03:01:39;19.48;;;9.93;;
37593;SDS011;23441;50.856;6.076;2023-06-01T03:04:05;17.80;;;10.90;;
37593;SDS011;23441;50.856;6.076;2023-06-01T03:06:32;21.38;;;10.40;;
37593;SDS011;23441;50.856;6.076;2023-06-01T03:09:03;23.45;;;10.85;;
37593;SDS011;23441;50.856;6.076;2023-06-01T03:11:29;19.58;;;10.27;;
37593;SDS011;23441;50.856;6.076;2023-06-01T03:13:55;18.85;;;10.40;;
37593;SDS011;23441;50.856;6.076;2023-06-01T03:16:22;17.80;;;10.38;;
37593;SDS011;23441;50.856;6.076;2023-06-01T03:18:48;28.65;;;11.75;;
37593;SDS011;23441;50.856;6.076;2023-06-01T03:21:14;20.90;;;11.70;;
37593;SDS011;23441;50.856;6.076;2023-06-01T03:23:41;17.58;;;10.70;;
37593;SDS011;23441;50.856;6.076;2023-06-01T03:26:09;22.27;;;11.40;;
37593;SDS011;23441;50.856;6.076;2023-06-01T03:28:37;21.30;;;11.05;;
37593;SDS011;23441;50.856;6.076;2023-06-01T03:31:03;19.15;;;11.05;;
37593;SDS011;23441;50.856;6.076;2023-06-01T03:33:29;20.48;;;10.27;;
37593;SDS011;23441;50.856;6.076;2023-06-01T03:35:55;23.25;;;11.07;;
37593;SDS011;23441;50.856;6.076;2023-06-01T03:38:21;19.88;;;10.02;;
37593;SDS011;23441;50.856;6.076;2023-06-01T03:40:47;21.45;;;11.18;;
37593;SDS011;23441;50.856;6.076;2023-06-01T03:43:13;25.98;;;11.75;;
37593;SDS011;23441;50.856;6.076;2023-06-01T03:45:38;23.88;;;11.70;;
37593;SDS011;23441;50.856;6.076;2023-06-01T03:48:04;20.55;;;11.15;;
37593;SDS011;23441;50.856;6.076;2023-06-01T03:50:30;24.17;;;11.73;;
37593;SDS011;23441;50.856;6.076;2023-06-01T03:52:56;22.25;;;11.85;;
37593;SDS011;23441;50.856;6.076;2023-06-01T03:55:21;25.95;;;12.88;;
37593;SDS011;23441;50.856;6.076;2023-06-01T03:57:47;25.38;;;12.60;;
37593;SDS011;23441;50.856;6.076;2023-06-01T04:00:13;30.95;;;13.05;;
37593;SDS011;23441;50.856;6.076;2023-06-01T04:02:49;26.17;;;12.82;;
37593;SDS011;23441;50.856;6.076;2023-06-01T04:05:15;27.25;;;13.25;;
37593;SDS011;23441;50.856;6.076;2023-06-01T04:07:46;21.23;;;11.98;;
37593;SDS011;23441;50.856;6.076;2023-06-01T04:10:16;27.90;;;14.07;;
37593;SDS011;23441;50.856;6.076;2023-06-01T04:12:45;25.63;;;13.50;;
37593;SDS011;23441;50.856;6.076;2023-06-01T04:15:13;29.83;;;13.10;;
37593;SDS011;23441;50.856;6.076;2023-06-01T04:17:40;32.35;;;15.23;;
37593;SDS011;23441;50.856;6.076;2023-06-01T04:20:08;26.10;;;13.82;;
37593;SDS011;23441;50.856;6.076;2023-06-01T04:22:38;29.90;;;14.25;;
37593;SDS011;23441;50.856;6.076;2023-06-01T04:25:08;23.30;;;12.95;;
37593;SDS011;23441;50.856;6.076;2023-06-01T04:27:36;32.72;;;14.85;;
37593;SDS011;23441;50.856;6.076;2023-06-01T04:30:06;29.33;;;14.35;;
37593;SDS011;23441;50.856;6.076;2023-06-01T04:32:35;32.92;;;14.70;;
37593;SDS011;23441;50.856;6.076;2023-06-01T04:35:03;28.92;;;14.40;;
37593;SDS011;23441;50.856;6.076;2023-06-01T04:37:33;27.30;;;14.95;;
37593;SDS011;23441;50.856;6.076;2023-06-01T04:40:05;30.33;;;15.60;;
37593;SDS011;23441;50.856;6.076;2023-06-01T04:42:36;29.85;;;15.95;;
37593;SDS011;23441;50.856;6.076;2023-06-01T04:45:29;33.60;;;15.88;;
37593;SDS011;23441;50.856;6.076;2023-06-01T04:47:56;27.77;;;15.85;;
37593;SDS011;23441;50.856;6.076;2023-06-01T04:50:24;44.67;;;18.73;;
37593;SDS011;23441;50.856;6.076;2023-06-01T04:52:54;47.47;;;22.50;;
37593;SDS011;23441;50.856;6.076;2023-06-01T04:55:20;59.22;;;25.63;;
37593;SDS011;23441;50.856;6.076;2023-06-01T04:57:46;54.17;;;23.98;;
37593;SDS011;23441;50.856;6.076;2023-06-01T05:00:12;57.83;;;27.05;;
37593;SDS011;23441;50.856;6.076;2023-06-01T05:02:43;70.97;;;29.83;;
37593;SDS011;23441;50.856;6.076;2023-06-01T05:05:10;57.97;;;28.65;;
37593;SDS011;23441;50.856;6.076;2023-06-01T05:07:36;69.00;;;31.67;;
37593;SDS011;23441;50.856;6.076;2023-06-01T05:10:03;68.97;;;32.45;;
37593;SDS011;23441;50.856;6.076;2023-06-01T05:12:31;69.60;;;31.77;;
37593;SDS011;23441;50.856;6.076;2023-06-01T05:14:57;77.72;;;33.60;;
37593;SDS011;23441;50.856;6.076;2023-06-01T05:17:23;74.47;;;33.90;;
37593;SDS011;23441;50.856;6.076;2023-06-01T05:19:49;84.85;;;35.53;;
37593;SDS011;23441;50.856;6.076;2023-06-01T05:22:14;84.47;;;37.03;;
37593;SDS011;23441;50.856;6.076;2023-06-01T05:24:40;88.45;;;37.80;;
37593;SDS011;23441;50.856;6.076;2023-06-01T05:27:06;88.82;;;38.85;;
37593;SDS011;23441;50.856;6.076;2023-06-01T05:29:32;84.65;;;38.08;;
37593;SDS011;23441;50.856;6.076;2023-06-01T05:31:57;88.93;;;36.97;;
37593;SDS011;23441;50.856;6.076;2023-06-01T05:34:23;88.60;;;38.58;;
37593;SDS011;23441;50.856;6.076;2023-06-01T05:36:48;85.45;;;37.03;;
37593;SDS011;23441;50.856;6.076;2023-06-01T05:39:14;86.45;;;36.90;;
37593;SDS011;23441;50.856;6.076;2023-06-01T05:41:40;87.90;;;38.85;;
37593;SDS011;23441;50.856;6.076;2023-06-01T05:44:06;95.18;;;40.15;;
37593;SDS011;23441;50.856;6.076;2023-06-01T05:46:32;96.57;;;39.80;;
37593;SDS011;23441;50.856;6.076;2023-06-01T05:48:58;101.90;;;42.45;;
37593;SDS011;23441;50.856;6.076;2023-06-01T05:51:24;103.93;;;41.95;;
37593;SDS011;23441;50.856;6.076;2023-06-01T05:53:50;105.47;;;45.15;;
37593;SDS011;23441;50.856;6.076;2023-06-01T05:56:15;101.38;;;42.20;;
37593;SDS011;23441;50.856;6.076;2023-06-01T05:58:41;108.85;;;44.13;;
37593;SDS011;23441;50.856;6.076;2023-06-01T06:01:08;105.10;;;42.83;;
37593;SDS011;23441;50.856;6.076;2023-06-01T06:03:35;109.25;;;43.85;;
37593;SDS011;23441;50.856;6.076;2023-06-01T06:06:00;102.68;;;43.22;;
37593;SDS011;23441;50.856;6.076;2023-06-01T06:08:26;108.20;;;43.10;;
37593;SDS011;23441;50.856;6.076;2023-06-01T06:10:52;113.13;;;44.90;;
37593;SDS011;23441;50.856;6.076;2023-06-01T06:13:18;105.03;;;42.55;;
37593;SDS011;23441;50.856;6.076;2023-06-01T06:15:44;108.15;;;44.92;;
37593;SDS011;23441;50.856;6.076;2023-06-01T06:18:09;113.63;;;44.50;;
37593;SDS011;23441;50.856;6.076;2023-06-01T06:20:35;89.55;;;40.00;;
37593;SDS011;23441;50.856;6.076;2023-06-01T06:23:01;99.80;;;39.53;;
37593;SDS011;23441;50.856;6.076;2023-06-01T06:25:27;88.50;;;38.45;;
37593;SDS011;23441;50.856;6.076;2023-06-01T06:27:52;89.30;;;40.67;;
37593;SDS011;23441;50.856;6.076;2023-06-01T06:30:18;90.93;;;38.10;;
37593;SDS011;23441;50.856;6.076;2023-06-01T06:32:44;84.20;;;35.60;;
37593;SDS011;23441;50.856;6.076;2023-06-01T06:35:10;85.05;;;37.13;;
37593;SDS011;23441;50.856;6.076;2023-06-01T06:37:41;80.28;;;35.10;;
37593;SDS011;23441;50.856;6.076;2023-06-01T06:40:08;80.28;;;33.92;;
37593;SDS011;23441;50.856;6.076;2023-06-01T06:42:34;71.25;;;33.30;;
37593;SDS011;23441;50.856;6.076;2023-06-01T06:45:01;79.93;;;34.25;;
37593;SDS011;23441;50.856;6.076;2023-06-01T06:47:27;71.65;;;31.70;;
37593;SDS011;23441;50.856;6.076;2023-06-01T06:49:53;71.28;;;33.67;;
37593;SDS011;23441;50.856;6.076;2023-06-01T06:52:18;82.03;;;36.47;;
37593;SDS011;23441;50.856;6.076;2023-06-01T06:54:44;76.38;;;35.67;;
37593;SDS011;23441;50.856;6.076;2023-06-01T06:57:10;67.53;;;32.63;;
37593;SDS011;23441;50.856;6.076;2023-06-01T06:59:36;65.05;;;30.27;;
37593;SDS011;23441;50.856;6.076;2023-06-01T07:02:01;71.18;;;32.30;;
37593;SDS011;23441;50.856;6.076;2023-06-01T07:04:28;67.70;;;33.20;;
37593;SDS011;23441;50.856;6.076;2023-06-01T07:06:54;63.20;;;30.58;;
37593;SDS011;23441;50.856;6.076;2023-06-01T07:09:20;63.78;;;30.17;;
37593;SDS011;23441;50.856;6.076;2023-06-01T07:11:46;61.97;;;28.20;;
37593;SDS011;23441;50.856;6.076;2023-06-01T07:14:13;58.55;;;28.10;;
37593;SDS011;23441;50.856;6.076;2023-06-01T07:16:39;55.45;;;27.15;;
37593;SDS011;23441;50.856;6.076;2023-06-01T07:19:05;43.20;;;23.35;;
37593;SDS011;23441;50.856;6.076;2023-06-01T07:21:31;61.00;;;29.10;;
37593;SDS011;23441;50.856;6.076;2023-06-01T07:23:57;50.90;;;25.65;;
37593;SDS011;23441;50.856;6.076;2023-06-01T07:26:23;54.10;;;27.10;;
37593;SDS011;23441;50.856;6.076;2023-06-01T07:28:53;51.50;;;25.02;;
37593;SDS011;23441;50.856;6.076;2023-06-01T07:31:21;49.15;;;25.60;;
37593;SDS011;23441;50.856;6.076;2023-06-01T07:33:48;47.75;;;24.95;;
37593;SDS011;23441;50.856;6.076;2023-06-01T07:36:14;49.20;;;24.65;;
37593;SDS011;23441;50.856;6.076;2023-06-01T07:38:40;45.67;;;23.65;;
37593;SDS011;23441;50.856;6.076;2023-06-01T07:41:08;51.95;;;25.17;;
37593;SDS011;23441;50.856;6.076;2023-06-01T07:43:35;51.78;;;24.63;;
37593;SDS011;23441;50.856;6.076;2023-06-01T07:46:02;47.63;;;25.38;;
37593;SDS011;23441;50.856;6.076;2023-06-01T07:48:28;42.40;;;23.00;;
37593;SDS011;23441;50.856;6.076;2023-06-01T07:50:53;46.88;;;22.92;;
37593;SDS011;23441;50.856;6.076;2023-06-01T07:53:19;52.55;;;25.80;;
37593;SDS011;23441;50.856;6.076;2023-06-01T07:55:45;51.47;;;28.45;;
37593;SDS011;23441;50.856;6.076;2023-06-01T07:58:13;49.55;;;24.77;;
37593;SDS011;23441;50.856;6.076;2023-06-01T08:00:39;46.38;;;23.02;;
37593;SDS011;23441;50.856;6.076;2023-06-01T08:03:05;43.72;;;25.48;;
37593;SDS011;23441;50.856;6.076;2023-06-01T08:05:33;38.47;;;22.23;;
37593;SDS011;23441;50.856;6.076;2023-06-01T08:07:59;41.10;;;22.77;;
37593;SDS011;23441;50.856;6.076;2023-06-01T08:10:25;40.83;;;21.40;;
37593;SDS011;23441;50.856;6.076;2023-06-01T08:12:51;45.47;;;26.00;;
37593;SDS011;23441;50.856;6.076;2023-06-01T08:15:21;37.97;;;21.58;;
37593;SDS011;23441;50.856;6.076;2023-06-01T08:17:48;40.97;;;21.33;;
37593;SDS011;23441;50.856;6.076;2023-06-01T08:20:16;44.22;;;22.30;;
37593;SDS011;23441;50.856;6.076;2023-06-01T08:22:46;34.10;;;21.10;;
37593;SDS011;23441;50.856;6.076;2023-06-01T08:25:12;33.38;;;20.83;;
37593;SDS011;23441;50.856;6.076;2023-06-01T08:27:39;34.85;;;20.83;;
37593;SDS011;23441;50.856;6.076;2023-06-01T08:30:06;34.20;;;19.83;;
37593;SDS011;23441;50.856;6.076;2023-06-01T08:32:32;34.78;;;19.73;;
37593;SDS011;23441;50.856;6.076;2023-06-01T08:34:58;30.50;;;18.15;;
37593;SDS011;23441;50.856;6.076;2023-06-01T08:37:24;32.13;;;17.70;;
37593;SDS011;23441;50.856;6.076;2023-06-01T08:39:49;32.50;;;20.02;;
37593;SDS011;23441;50.856;6.076;2023-06-01T08:42:20;32.05;;;18.63;;
37593;SDS011;23441;50.856;6.076;2023-06-01T08:44:54;32.28;;;18.58;;
37593;SDS011;23441;50.856;6.076;2023-06-01T08:47:24;26.30;;;17.35;;
37593;SDS011;23441;50.856;6.076;2023-06-01T08:49:50;27.77;;;17.00;;
37593;SDS011;23441;50.856;6.076;2023-06-01T08:52:21;32.75;;;17.30;;
37593;SDS011;23441;50.856;6.076;2023-06-01T08:54:49;34.72;;;18.75;;
37593;SDS011;23441;50.856;6.076;2023-06-01T08:57:15;31.70;;;21.63;;
37593;SDS011;23441;50.856;6.076;2023-06-01T08:59:41;32.03;;;21.25;;
37593;SDS011;23441;50.856;6.076;2023-06-01T09:02:07;30.90;;;19.27;;
37593;SDS011;23441;50.856;6.076;2023-06-01T09:04:34;28.00;;;17.40;;
37593;SDS011;23441;50.856;6.076;2023-06-01T09:07:02;23.35;;;15.48;;
37593;SDS011;23441;50.856;6.076;2023-06-01T09:09:29;19.60;;;13.45;;
37593;SDS011;23441;50.856;6.076;2023-06-01T09:14:50;16.23;;;12.35;;
37593;SDS011;23441;50.856;6.076;2023-06-01T09:17:35;19.95;;;13.75;;
37593;SDS011;23441;50.856;6.076;2023-06-01T09:20:01;18.08;;;13.43;;
37593;SDS011;23441;50.856;6.076;2023-06-01T09:25:07;18.60;;;13.25;;
37593;SDS011;23441;50.856;6.076;2023-06-01T09:30:11;20.58;;;13.10;;
37593;SDS011;23441;50.856;6.076;2023-06-01T09:32:38;18.98;;;11.43;;
37593;SDS011;23441;50.856;6.076;2023-06-01T09:35:04;17.73;;;13.00;;
37593;SDS011;23441;50.856;6.076;2023-06-01T09:37:32;17.52;;;12.63;;
37593;SDS011;23441;50.856;6.076;2023-06-01T09:40:02;21.38;;;12.80;;
37593;SDS011;23441;50.856;6.076;2023-06-01T09:42:41;22.45;;;12.77;;
37593;SDS011;23441;50.856;6.076;2023-06-01T09:45:14;19.80;;;12.60;;
37593;SDS011;23441;50.856;6.076;2023-06-01T09:47:44;25.00;;;12.07;;
37593;SDS011;23441;50.856;6.076;2023-06-01T09:50:10;20.27;;;13.13;;
37593;SDS011;23441;50.856;6.076;2023-06-01T09:52:36;21.98;;;13.48;;
37593;SDS011;23441;50.856;6.076;2023-06-01T09:55:06;18.10;;;12.15;;
37593;SDS011;23441;50.856;6.076;2023-06-01T09:57:33;20.30;;;12.45;;
37593;SDS011;23441;50.856;6.076;2023-06-01T09:59:59;18.90;;;11.65;;
37593;SDS011;23441;50.856;6.076;2023-06-01T10:02:29;16.90;;;12.07;;
37593;SDS011;23441;50.856;6.076;2023-06-01T10:04:57;19.58;;;12.98;;
37593;SDS011;23441;50.856;6.076;2023-06-01T10:07:26;19.08;;;12.63;;
37593;SDS011;23441;50.856;6.076;2023-06-01T10:09:54;21.90;;;12.40;;
37593;SDS011;23441;50.856;6.076;2023-06-01T10:12:22;22.80;;;12.00;;
37593;SDS011;23441;50.856;6.076;2023-06-01T10:14:50;22.13;;;12.20;;
37593;SDS011;23441;50.856;6.076;2023-06-01T10:17:16;21.00;;;13.02;;
37593;SDS011;23441;50.856;6.076;2023-06-01T10:19:44;18.20;;;11.60;;
37593;SDS011;23441;50.856;6.076;2023-06-01T10:22:10;17.50;;;10.93;;
37593;SDS011;23441;50.856;6.076;2023-06-01T10:24:37;19.25;;;11.15;;
37593;SDS011;23441;50.856;6.076;2023-06-01T10:30:00;17.17;;;10.85;;
37593;SDS011;23441;50.856;6.076;2023-06-01T10:40:41;15.40;;;10.82;;
37593;SDS011;23441;50.856;6.076;2023-06-01T10:46:01;18.67;;;10.30;;
37593;SDS011;23441;50.856;6.076;2023-06-01T10:51:24;13.20;;;9.48;;
37593;SDS011;23441;50.856;6.076;2023-06-01T10:53:51;15.45;;;10.20;;
37593;SDS011;23441;50.856;6.076;2023-06-01T10:56:23;15.80;;;9.57;;
37593;SDS011;23441;50.856;6.076;2023-06-01T11:01:33;16.75;;;10.43;;
37593;SDS011;23441;50.856;6.076;2023-06-01T11:04:00;16.30;;;9.32;;
37593;SDS011;23441;50.856;6.076;2023-06-01T11:06:30;20.17;;;11.00;;
37593;SDS011;23441;50.856;6.076;2023-06-01T11:08:59;18.35;;;11.40;;
37593;SDS011;23441;50.856;6.076;2023-06-01T11:14:20;19.35;;;10.40;;
37593;SDS011;23441;50.856;6.076;2023-06-01T11:16:48;18.95;;;11.55;;
37593;SDS011;23441;50.856;6.076;2023-06-01T11:19:22;23.02;;;13.10;;
37593;SDS011;23441;50.856;6.076;2023-06-01T11:24:31;20.88;;;12.00;;
37593;SDS011;23441;50.856;6.076;2023-06-01T11:26:59;18.73;;;11.68;;
37593;SDS011;23441;50.856;6.076;2023-06-01T11:29:31;19.10;;;12.38;;
37593;SDS011;23441;50.856;6.076;2023-06-01T11:32:00;24.92;;;13.75;;
37593;SDS011;23441;50.856;6.076;2023-06-01T11:34:35;24.13;;;13.88;;
37593;SDS011;23441;50.856;6.076;2023-06-01T11:37:17;17.60;;;12.10;;
37593;SDS011;23441;50.856;6.076;2023-06-01T11:39:43;24.52;;;12.65;;
37593;SDS011;23441;50.856;6.076;2023-06-01T11:42:13;18.70;;;13.27;;
37593;SDS011;23441;50.856;6.076;2023-06-01T11:44:56;22.17;;;12.80;;
37593;SDS011;23441;50.856;6.076;2023-06-01T11:47:22;21.67;;;12.40;;
37593;SDS011;23441;50.856;6.076;2023-06-01T11:49:52;19.15;;;12.45;;
37593;SDS011;23441;50.856;6.076;2023-06-01T11:52:18;18.77;;;11.75;;
37593;SDS011;23441;50.856;6.076;2023-06-01T11:54:45;17.25;;;11.43;;
37593;SDS011;23441;50.856;6.076;2023-06-01T11:57:11;23.90;;;12.65;;
37593;SDS011;23441;50.856;6.076;2023-06-01T11:59:38;18.30;;;11.32;;
37593;SDS011;23441;50.856;6.076;2023-06-01T12:02:21;21.13;;;13.43;;
37593;SDS011;23441;50.856;6.076;2023-06-01T12:04:58;19.88;;;13.82;;
37593;SDS011;23441;50.856;6.076;2023-06-01T12:07:32;26.42;;;14.82;;
37593;SDS011;23441;50.856;6.076;2023-06-01T12:10:09;25.02;;;15.23;;
37593;SDS011;23441;50.856;6.076;2023-06-01T12:12:36;23.80;;;15.23;;
37593;SDS011;23441;50.856;6.076;2023-06-01T12:15:02;26.13;;;17.38;;
37593;SDS011;23441;50.856;6.076;2023-06-01T12:20:31;23.27;;;13.63;;
37593;SDS011;23441;50.856;6.076;2023-06-01T12:23:01;17.95;;;11.15;;
37593;SDS011;23441;50.856;6.076;2023-06-01T12:25:30;21.95;;;13.10;;
37593;SDS011;23441;50.856;6.076;2023-06-01T12:28:03;17.85;;;12.57;;
37593;SDS011;23441;50.856;6.076;2023-06-01T12:30:30;18.90;;;11.05;;
37593;SDS011;23441;50.856;6.076;2023-06-01T12:32:56;16.05;;;10.43;;
37593;SDS011;23441;50.856;6.076;2023-06-01T12:35:22;17.27;;;11.85;;
37593;SDS011;23441;50.856;6.076;2023-06-01T12:38:07;17.70;;;12.20;;
37593;SDS011;23441;50.856;6.076;2023-06-01T12:40:38;22.00;;;12.20;;
37593;SDS011;23441;50.856;6.076;2023-06-01T12:43:04;16.85;;;11.75;;
37593;SDS011;23441;50.856;6.076;2023-06-01T12:45:37;16.85;;;10.30;;
37593;SDS011;23441;50.856;6.076;2023-06-01T12:48:04;20.77;;;11.73;;
37593;SDS011;23441;50.856;6.076;2023-06-01T12:50:30;18.02;;;10.63;;
37593;SDS011;23441;50.856;6.076;2023-06-01T12:52:57;19.02;;;11.43;;
37593;SDS011;23441;50.856;6.076;2023-06-01T12:55:23;20.73;;;11.13;;
37593;SDS011;23441;50.856;6.076;2023-06-01T12:57:52;16.63;;;9.70;;
37593;SDS011;23441;50.856;6.076;2023-06-01T13:00:21;18.52;;;10.65;;
37593;SDS011;23441;50.856;6.076;2023-06-01T13:02:47;14.82;;;9.38;;
37593;SDS011;23441;50.856;6.076;2023-06-01T13:05:14;16.77;;;9.15;;
37593;SDS011;23441;50.856;6.076;2023-06-01T13:07:44;16.75;;;10.52;;
37593;SDS011;23441;50.856;6.076;2023-06-01T13:10:10;18.92;;;9.82;;
37593;SDS011;23441;50.856;6.076;2023-06-01T13:12:37;17.50;;;9.57;;
37593;SDS011;23441;50.856;6.076;2023-06-01T13:15:05;18.05;;;9.27;;
37593;SDS011;23441;50.856;6.076;2023-06-01T13:17:31;16.98;;;9.40;;
37593;SDS011;23441;50.856;6.076;2023-06-01T13:19:57;16.45;;;7.88;;
37593;SDS011;23441;50.856;6.076;2023-06-01T13:22:23;16.00;;;9.50;;
37593;SDS011;23441;50.856;6.076;2023-06-01T13:24:49;18.60;;;9.77;;
37593;SDS011;23441;50.856;6.076;2023-06-01T13:27:14;19.00;;;8.70;;
37593;SDS011;23441;50.856;6.076;2023-06-01T13:29:40;14.20;;;8.20;;
37593;SDS011;23441;50.856;6.076;2023-06-01T13:32:07;15.27;;;9.32;;
37593;SDS011;23441;50.856;6.076;2023-06-01T13:34:34;14.48;;;10.15;;
37593;SDS011;23441;50.856;6.076;2023-06-01T13:37:01;18.70;;;9.77;;
37593;SDS011;23441;50.856;6.076;2023-06-01T13:39:26;19.83;;;9.05;;
37593;SDS011;23441;50.856;6.076;2023-06-01T13:41:52;19.17;;;10.80;;
37593;SDS011;23441;50.856;6.076;2023-06-01T13:44:18;18.30;;;10.30;;
37593;SDS011;23441;50.856;6.076;2023-06-01T13:46:44;19.35;;;11.10;;
37593;SDS011;23441;50.856;6.076;2023-06-01T13:49:10;19.40;;;9.65;;
37593;SDS011;23441;50.856;6.076;2023-06-01T13:51:36;14.98;;;8.82;;
37593;SDS011;23441;50.856;6.076;2023-06-01T13:54:04;16.23;;;8.70;;
37593;SDS011;23441;50.856;6.076;2023-06-01T13:56:31;16.30;;;9.45;;
37593;SDS011;23441;50.856;6.076;2023-06-01T13:58:57;17.38;;;9.30;;
37593;SDS011;23441;50.856;6.076;2023-06-01T14:01:23;19.00;;;9.68;;
37593;SDS011;23441;50.856;6.076;2023-06-01T14:03:48;17.08;;;8.70;;
37593;SDS011;23441;50.856;6.076;2023-06-01T14:06:14;14.73;;;8.63;;
37593;SDS011;23441;50.856;6.076;2023-06-01T14:08:41;12.65;;;8.25;;
37593;SDS011;23441;50.856;6.076;2023-06-01T14:11:07;15.32;;;8.73;;
37593;SDS011;23441;50.856;6.076;2023-06-01T14:13:32;14.20;;;8.13;;
37593;SDS011;23441;50.856;6.076;2023-06-01T14:15:58;14.73;;;8.52;;
37593;SDS011;23441;50.856;6.076;2023-06-01T14:18:23;14.63;;;8.48;;
37593;SDS011;23441;50.856;6.076;2023-06-01T14:20:49;14.90;;;7.68;;
37593;SDS011;23441;50.856;6.076;2023-06-01T14:23:16;14.70;;;8.27;;
37593;SDS011;23441;50.856;6.076;2023-06-01T14:25:42;16.85;;;8.02;;
37593;SDS011;23441;50.856;6.076;2023-06-01T14:28:07;13.98;;;6.72;;
37593;SDS011;23441;50.856;6.076;2023-06-01T14:30:33;16.48;;;8.18;;
37593;SDS011;23441;50.856;6.076;2023-06-01T14:32:59;15.52;;;7.90;;
37593;SDS011;23441;50.856;6.076;2023-06-01T14:35:25;14.82;;;7.43;;
37593;SDS011;23441;50.856;6.076;2023-06-01T14:37:51;16.33;;;7.57;;
37593;SDS011;23441;50.856;6.076;2023-06-01T14:40:17;14.63;;;7.85;;
37593;SDS011;23441;50.856;6.076;2023-06-01T14:42:43;15.50;;;8.13;;
37593;SDS011;23441;50.856;6.076;2023-06-01T14:45:10;12.73;;;7.35;;
37593;SDS011;23441;50.856;6.076;2023-06-01T14:47:38;12.88;;;7.55;;
37593;SDS011;23441;50.856;6.076;2023-06-01T14:50:07;13.55;;;7.30;;
37593;SDS011;23441;50.856;6.076;2023-06-01T14:52:34;14.70;;;7.68;;
37593;SDS011;23441;50.856;6.076;2023-06-01T14:54:59;11.10;;;7.25;;
37593;SDS011;23441;50.856;6.076;2023-06-01T14:57:25;12.77;;;7.20;;
37593;SDS011;23441;50.856;6.076;2023-06-01T14:59:51;14.35;;;6.75;;
37593;SDS011;23441;50.856;6.076;2023-06-01T15:02:16;10.55;;;6.65;;
37593;SDS011;23441;50.856;6.076;2023-06-01T15:04:43;17.90;;;7.20;;
37593;SDS011;23441;50.856;6.076;2023-06-01T15:07:10;13.05;;;7.28;;
37593;SDS011;23441;50.856;6.076;2023-06-01T15:09:36;16.08;;;7.60;;
37593;SDS011;23441;50.856;6.076;2023-06-01T15:12:01;12.70;;;6.70;;
37593;SDS011;23441;50.856;6.076;2023-06-01T15:14:28;13.57;;;6.90;;